Time;durP1;ratioP1;P1;durP2;ratioP2;P2;SDS_P1;SDS_P2;PMS_P1;PMS_P2;Temp;Humidity;BMP_temperature;BMP_pressure;BME280_temperature;BME280_humidity;BME280_pressure;Samples;Min_cycle;Max_cycle;Signal;HPM_P1;HPM_P2
2023/02/16 00:00:22;;;;;;;148.25;50.55;;;;;;;1.64;100.00;101538.75;5071708;28;20076;-80
2023/02/16 00:02:49;;;;;;;133.07;49.17;;;;;;;1.67;100.00;101550.97;5071388;28;20052;-80
2023/02/16 00:05:28;;;;;;;138.90;48.80;;;;;;;1.66;100.00;101523.09;5071520;28;20044;-80
2023/02/16 00:07:56;;;;;;;133.63;48.25;;;;;;;2.01;100.00;101560.78;5070371;28;20139;-81
2023/02/16 00:10:24;;;;;;;132.98;48.60;;;;;;;1.83;100.00;101510.16;5067302;28;20501;-82
2023/02/16 00:15:37;;;;;;;123.35;47.25;;;;;;;2.10;100.00;101525.97;5075085;28;20151;-79
2023/02/16 00:18:20;;;;;;;128.35;48.65;;;;;;;1.86;100.00;101498.00;5075672;28;20116;-82
2023/02/16 00:20:48;;;;;;;136.13;49.03;;;;;;;1.97;100.00;101534.63;5073217;28;20106;-82
2023/02/16 00:23:15;;;;;;;137.23;49.33;;;;;;;1.96;100.00;101545.94;5075222;28;20044;-81
2023/02/16 00:25:42;;;;;;;133.13;47.70;;;;;;;1.23;100.00;101431.44;5068963;28;20058;-80
2023/02/16 00:28:18;;;;;;;129.43;47.00;;;;;;;1.00;100.00;101375.59;5075961;28;20037;-80
2023/02/16 00:30:45;;;;;;;132.07;49.60;;;;;;;1.51;100.00;101455.13;5068875;28;20052;-80
2023/02/16 00:33:17;;;;;;;135.07;49.17;;;;;;;1.79;100.00;101516.22;5078363;28;20066;-80
2023/02/16 00:35:44;;;;;;;134.43;48.03;;;;;;;2.00;100.00;101552.94;5068310;28;20135;-80
2023/02/16 00:38:12;;;;;;;141.85;48.97;;;;;;;1.97;100.00;101565.97;5075657;28;20064;-81
2023/02/16 00:40:40;;;;;;;139.52;51.72;;;;;;;1.96;100.00;101556.38;5071041;28;20048;-81
2023/02/16 00:43:20;;;;;;;139.43;48.90;;;;;;;1.88;100.00;101568.53;5075858;28;20487;-81
2023/02/16 00:45:47;;;;;;;104.78;37.30;;;;;;;1.13;100.00;101418.28;5068775;28;20502;-80
2023/02/16 00:48:14;;;;;;;145.20;49.15;;;;;;;1.87;100.00;101545.88;5077005;28;20036;-81
2023/02/16 00:50:40;;;;;;;138.93;48.80;;;;;;;-0.02;100.00;101234.03;5074695;28;20098;-82
2023/02/16 00:53:09;;;;;;;140.45;49.45;;;;;;;1.85;100.00;101545.88;5075443;28;20053;-82
2023/02/16 00:55:38;;;;;;;150.30;51.88;;;;;;;1.77;100.00;101543.19;5074872;28;20132;-81
2023/02/16 00:58:15;;;;;;;154.55;51.78;;;;;;;1.73;100.00;101544.03;5071844;28;20051;-81
2023/02/16 01:00:51;;;;;;;159.18;51.60;;;;;;;1.72;100.00;101547.53;5067762;28;20143;-82
2023/02/16 01:03:23;;;;;;;153.25;50.63;;;;;;;0.77;100.00;101372.81;5074684;28;20135;-82
2023/02/16 01:11:06;;;;;;;153.07;52.58;;;;;;;1.41;100.00;101493.34;5075117;28;20045;-80
2023/02/16 01:11:23;;;;;;;156.07;51.63;;;;;;;1.72;100.00;101537.09;5071713;28;20128;-79
2023/02/16 01:13:50;;;;;;;158.85;52.38;;;;;;;1.50;100.00;101506.44;5074488;28;20044;-80
2023/02/16 01:16:36;;;;;;;154.80;49.55;;;;;;;0.88;100.00;101412.00;5070679;28;20110;-80
2023/02/16 01:19:03;;;;;;;160.68;50.50;;;;;;;1.68;100.00;101545.75;5054273;28;20051;-80
2023/02/16 01:21:30;;;;;;;163.15;50.05;;;;;;;1.02;100.00;101442.56;5073263;28;20135;-82
2023/02/16 01:23:57;;;;;;;166.15;52.67;;;;;;;0.52;100.00;101370.84;5073815;28;20078;-81
2023/02/16 01:26:23;;;;;;;156.48;51.08;;;;;;;1.42;100.00;101508.09;5073096;28;20040;-80
2023/02/16 01:28:50;;;;;;;154.98;50.55;;;;;;;0.80;100.00;101371.94;5066496;28;20111;-80
2023/02/16 01:31:17;;;;;;;145.90;47.95;;;;;;;1.43;100.00;101481.16;5071081;28;20041;-80
2023/02/16 01:33:44;;;;;;;148.07;48.92;;;;;;;1.62;100.00;101506.53;5074045;28;20056;-79
2023/02/16 01:36:33;;;;;;;138.38;49.17;;;;;;;1.65;100.00;101514.38;5074152;28;20044;-80
2023/02/16 01:39:01;;;;;;;146.82;48.60;;;;;;;1.75;100.00;101521.41;5068403;28;20142;-79
2023/02/16 01:42:02;;;;;;;146.63;49.53;;;;;;;1.86;100.00;101518.03;5073798;28;20082;-80
2023/02/16 01:44:28;;;;;;;;;;;;;;;1.85;100.00;101524.09;5074667;28;20048;-80
2023/02/16 01:46:59;;;;;;;152.43;47.97;;;;;;;1.79;100.00;101522.31;5073669;28;19927;-79
2023/02/16 01:49:26;;;;;;;138.20;47.65;;;;;;;1.12;100.00;101406.09;5072309;28;20131;-80
2023/02/16 01:52:10;;;;;;;154.50;49.75;;;;;;;1.56;100.00;101485.63;5073381;28;20135;-80
2023/02/16 01:54:48;;;;;;;137.10;46.63;;;;;;;1.73;100.00;101507.47;5074675;28;20064;-79
2023/02/16 01:57:38;;;;;;;141.23;47.85;;;;;;;1.75;100.00;101513.56;5073715;28;20053;-79
2023/02/16 02:00:15;;;;;;;149.68;49.25;;;;;;;1.09;100.00;101403.50;5068768;28;20051;-78
2023/02/16 02:02:45;;;;;;;147.45;47.67;;;;;;;1.79;100.00;101505.75;5043895;28;20647;-79
2023/02/16 02:05:35;;;;;;;147.18;49.22;;;;;;;1.83;100.00;101508.41;5071956;28;20041;-78
2023/02/16 02:08:19;;;;;;;145.35;47.88;;;;;;;1.89;100.00;101505.81;5068769;28;20096;-81
2023/02/16 02:11:12;;;;;;;156.27;49.85;;;;;;;1.93;100.00;101506.72;5045919;28;20049;-80
2023/02/16 02:14:08;;;;;;;151.10;48.67;;;;;;;1.51;100.00;101427.28;5060456;28;20072;-80
2023/02/16 02:16:34;;;;;;;154.52;49.00;;;;;;;2.00;100.00;101500.69;5066441;28;20086;-80
2023/02/16 02:19:01;;;;;;;152.55;49.92;;;;;;;1.44;100.00;101396.75;5073993;28;20049;-83
2023/02/16 02:25:05;;;;;;;151.25;50.35;;;;;;;2.07;100.00;101510.28;5074456;28;20639;-80
2023/02/16 02:27:43;;;;;;;170.32;49.22;;;;;;;1.90;100.00;101498.88;5074687;28;20048;-81
2023/02/16 02:30:27;;;;;;;155.82;49.85;;;;;;;1.93;100.00;101499.75;5073926;28;20131;-80
2023/02/16 02:33:23;;;;;;;134.95;45.83;;;;;;;1.87;100.00;101491.03;5065319;28;20056;-81
2023/02/16 02:36:06;;;;;;;142.90;47.20;;;;;;;1.73;100.00;101490.97;5063763;28;20509;-79
2023/02/16 02:38:50;;;;;;;149.95;46.80;;;;;;;1.61;100.00;101485.63;5073128;28;20051;-79
2023/02/16 02:44:22;;;;;;;152.77;45.67;;;;;;;1.24;100.00;101403.59;5078078;28;20164;-82
2023/02/16 02:46:50;;;;;;;141.45;46.00;;;;;;;1.65;100.00;101484.78;5082748;28;20044;-82
2023/02/16 02:49:16;;;;;;;145.05;46.35;;;;;;;1.72;100.00;101468.31;5081617;28;20485;-81
2023/02/16 02:51:43;;;;;;;146.90;46.60;;;;;;;1.57;100.00;101440.38;5081681;28;20120;-82
2023/02/16 03:03:05;;;;;;;150.35;48.70;;;;;;;1.37;100.00;101452.41;5068987;28;20052;-79
2023/02/16 03:05:34;;;;;;;164.73;48.70;;;;;;;1.35;100.00;101468.06;5083007;28;20057;-80
2023/02/16 03:08:12;;;;;;;156.90;49.15;;;;;;;1.51;100.00;101487.31;5087759;28;20045;-79
2023/02/16 03:13:34;;;;;;;142.60;46.17;;;;;;;1.35;100.00;101459.34;5072919;28;20080;-80
2023/02/16 03:16:08;;;;;;;147.90;45.45;;;;;;;1.36;100.00;101461.09;5084015;28;20492;-81
2023/02/16 03:29:50;;;;;;;136.30;44.30;;;;;;;1.44;100.00;101498.56;5069042;28;20140;-80
2023/02/16 03:32:17;;;;;;;140.52;44.65;;;;;;;1.04;100.00;101434.75;5053025;28;20429;-81
2023/02/16 03:34:43;;;;;;;132.07;42.90;;;;;;;1.47;100.00;101495.09;5073605;28;20560;-81
2023/02/16 03:37:12;;;;;;;127.47;45.17;;;;;;;0.78;100.00;101391.94;5055259;28;20485;-80
2023/02/16 03:42:24;;;;;;;137.15;42.97;;;;;;;1.09;100.00;101445.22;5064844;28;20049;-81
2023/02/16 03:44:51;;;;;;;133.23;42.63;;;;;;;0.83;100.00;101377.19;5068498;28;20106;-81
2023/02/16 03:47:18;;;;;;;133.30;44.47;;;;;;;1.27;100.00;101430.56;5079538;28;20052;-82
2023/02/16 03:49:45;;;;;;;123.65;42.30;;;;;;;1.11;100.00;101373.94;5075910;28;20155;-81
2023/02/16 03:52:12;;;;;;;122.55;40.00;;;;;;;1.59;100.00;101480.38;5075600;28;20060;-80
2023/02/16 03:54:38;;;;;;;121.95;41.90;;;;;;;0.96;100.00;101395.56;5075768;28;20048;-82
2023/02/16 03:57:05;;;;;;;122.85;41.10;;;;;;;1.29;100.00;101451.47;5076387;28;20060;-84
2023/02/16 03:59:32;;;;;;;132.95;43.03;;;;;;;1.15;100.00;101419.19;5058180;28;20044;-83
2023/02/16 04:01:59;;;;;;;125.75;42.22;;;;;;;1.33;100.00;101437.59;5075941;28;20138;-81
2023/02/16 04:04:25;;;;;;;132.95;42.75;;;;;;;0.83;100.00;101325.91;5083944;28;20495;-78
2023/02/16 04:06:52;;;;;;;116.55;39.80;;;;;;;1.52;100.00;101443.81;5082125;28;20052;-82
2023/02/16 04:09:18;;;;;;;109.05;38.13;;;;;;;1.59;100.00;101480.38;5085577;28;20148;-80
2023/02/16 04:14:30;;;;;;;118.75;39.30;;;;;;;1.53;100.00;101477.75;5079790;28;20552;-82
2023/02/16 04:16:56;;;;;;;111.28;39.20;;;;;;;1.33;100.00;101461.94;5081023;28;20123;-79
2023/02/16 04:19:23;;;;;;;119.63;40.85;;;;;;;1.42;100.00;101471.56;5078777;28;20049;-79
2023/02/16 04:21:51;;;;;;;111.05;38.35;;;;;;;1.48;100.00;101495.13;5075119;28;20071;-81
2023/02/16 04:24:18;;;;;;;128.05;42.60;;;;;;;0.50;100.00;101325.63;5073950;28;20074;-80
2023/02/16 04:26:45;;;;;;;138.00;43.80;;;;;;;0.65;100.00;101362.25;5076589;28;20040;-81
2023/02/16 04:29:11;;;;;;;131.45;44.42;;;;;;;1.40;100.00;101481.16;5076380;28;20051;-80
2023/02/16 04:31:38;;;;;;;137.75;43.78;;;;;;;0.79;100.00;101358.03;5076939;28;20052;-82
2023/02/16 04:34:05;;;;;;;131.18;43.72;;;;;;;0.72;100.00;101334.53;5078063;28;20052;-80
2023/02/16 04:36:33;;;;;;;128.43;43.03;;;;;;;1.01;100.00;101390.38;5076957;28;20059;-81
2023/02/16 04:38:59;;;;;;;110.22;40.38;;;;;;;0.80;100.00;101351.97;5076744;28;20040;-80
2023/02/16 04:41:26;;;;;;;93.10;35.97;;;;;;;1.13;100.00;101429.59;5076386;28;20102;-80
2023/02/16 04:43:53;;;;;;;95.82;37.00;;;;;;;1.39;100.00;101448.09;5074628;28;20037;-80
2023/02/16 04:46:19;;;;;;;97.43;36.03;;;;;;;1.33;100.00;101437.59;5075558;28;20052;-80
2023/02/16 04:48:46;;;;;;;94.25;34.35;;;;;;;0.99;100.00;101379.94;5076496;28;20101;-81
2023/02/16 04:51:13;;;;;;;95.97;35.75;;;;;;;-0.04;100.00;101175.84;5057768;28;20463;-81
2023/02/16 04:53:40;;;;;;;87.95;35.58;;;;;;;1.43;100.00;101439.38;5067287;28;20048;-80
2023/02/16 04:56:11;;;;;;;92.35;35.28;;;;;;;1.81;100.00;101493.59;5073799;28;20132;-78
2023/02/16 04:58:38;;;;;;;90.43;34.22;;;;;;;1.51;100.00;101423.78;5074951;28;20128;-80
2023/02/16 05:01:04;;;;;;;90.00;35.15;;;;;;;1.57;100.00;101434.28;5057448;28;20144;-81
2023/02/16 05:03:32;;;;;;;85.65;33.08;;;;;;;1.75;100.00;101474.41;5073361;28;20056;-81
2023/02/16 05:05:59;;;;;;;82.60;33.67;;;;;;;1.07;100.00;101368.69;5068736;28;20832;-80
2023/02/16 05:08:26;;;;;;;86.57;34.22;;;;;;;1.00;100.00;101349.50;5073197;28;20559;-80
2023/02/16 05:16:23;;;;;;;84.25;33.70;;;;;;;1.24;100.00;101369.69;5075954;28;20087;-81
2023/02/16 05:18:50;;;;;;;82.05;33.60;;;;;;;1.38;100.00;101375.88;5074638;28;20037;-80
2023/02/16 05:21:29;;;;;;;87.00;35.53;;;;;;;2.01;100.00;101487.63;5074707;28;20161;-79
2023/02/16 05:24:16;;;;;;;78.80;32.25;;;;;;;1.48;100.00;101416.81;5068909;28;20045;-82
2023/02/16 05:26:43;;;;;;;79.82;33.20;;;;;;;1.74;100.00;101461.34;5062162;28;20088;-78
2023/02/16 05:29:10;;;;;;;78.60;33.25;;;;;;;2.01;100.00;101499.81;5070528;28;20131;-78
2023/02/16 05:31:36;;;;;;;80.75;32.50;;;;;;;0.64;100.00;101282.31;5074058;28;20135;-78
2023/02/16 05:34:03;;;;;;;74.85;32.92;;;;;;;1.87;100.00;101504.09;5067213;28;20053;-80
2023/02/16 05:36:30;;;;;;;75.47;32.85;;;;;;;1.74;100.00;101464.81;5067343;28;20102;-80
2023/02/16 05:38:57;;;;;;;81.10;33.58;;;;;;;0.87;100.00;101342.47;5073906;28;20048;-80
2023/02/16 05:41:23;;;;;;;71.78;33.53;;;;;;;0.50;100.00;101268.31;5056134;28;20080;-80
2023/02/16 05:43:56;;;;;;;76.28;32.72;;;;;;;1.88;100.00;101511.06;5074620;28;20136;-79
2023/02/16 05:46:25;;;;;;;82.72;34.97;;;;;;;1.39;100.00;101463.75;5070998;28;20130;-80
2023/02/16 05:48:52;;;;;;;80.03;33.25;;;;;;;1.63;100.00;101515.22;5074081;28;20056;-80
2023/02/16 05:51:20;;;;;;;82.75;35.47;;;;;;;1.45;100.00;101463.75;5073494;28;20048;-79
2023/02/16 05:53:46;;;;;;;87.80;35.80;;;;;;;1.43;100.00;101444.59;5068925;28;20453;-79
2023/02/16 05:56:13;;;;;;;84.88;35.75;;;;;;;1.85;100.00;101511.03;5073406;28;20114;-80
2023/02/16 05:58:40;;;;;;;92.07;36.20;;;;;;;1.08;100.00;101375.66;5073991;28;20090;-79
2023/02/16 06:01:07;;;;;;;83.95;34.58;;;;;;;1.58;100.00;101464.72;5068501;28;20657;-81
2023/02/16 06:03:34;;;;;;;93.82;35.72;;;;;;;1.37;100.00;101436.75;5051770;28;20057;-78
2023/02/16 06:06:02;;;;;;;85.85;35.90;;;;;;;1.60;100.00;101507.38;5076505;28;20151;-79
2023/02/16 06:08:29;;;;;;;90.22;35.38;;;;;;;0.52;100.00;101314.38;5083741;28;20052;-80
2023/02/16 06:10:56;;;;;;;81.03;34.78;;;;;;;1.51;100.00;101491.66;5080704;28;20044;-80
2023/02/16 06:13:24;;;;;;;94.65;35.35;;;;;;;1.47;100.00;101493.38;5060536;28;20048;-79
2023/02/16 06:15:55;;;;;;;88.85;34.53;;;;;;;1.42;100.00;101515.94;5077459;28;20585;-79
2023/02/16 06:18:23;;;;;;;90.60;36.30;;;;;;;0.97;100.00;101466.84;5078597;28;20505;-80
2023/02/16 06:20:50;;;;;;;93.28;36.50;;;;;;;0.18;100.00;101352.25;5075249;28;20044;-79
2023/02/16 06:23:17;;;;;;;95.53;36.58;;;;;;;1.14;100.00;101525.25;5081109;28;20445;-79
2023/02/16 06:25:48;;;;;;;94.47;36.90;;;;;;;0.35;100.00;101397.59;5082554;28;20044;-79
2023/02/16 06:28:14;;;;;;;93.75;36.85;;;;;;;-0.01;100.00;101309.56;5086731;28;20466;-80
2023/02/16 06:30:41;;;;;;;100.38;37.33;;;;;;;0.77;100.00;101438.00;5087403;28;20049;-80
2023/02/16 06:33:08;;;;;;;85.68;34.97;;;;;;;1.42;100.00;101533.34;5084479;28;20078;-79
2023/02/16 06:35:34;;;;;;;87.00;35.33;;;;;;;1.40;100.00;101529.00;5083520;28;20083;-79
2023/02/16 06:38:01;;;;;;;90.13;36.63;;;;;;;1.53;100.00;101539.53;5081915;28;20044;-80
2023/02/16 06:40:28;;;;;;;87.28;34.30;;;;;;;1.13;100.00;101476.56;5084600;28;20060;-80
2023/02/16 06:42:54;;;;;;;90.35;34.80;;;;;;;1.43;100.00;101533.34;5079029;28;20048;-78
2023/02/16 06:45:21;;;;;;;85.13;35.42;;;;;;;1.01;100.00;101459.06;5078859;28;20064;-79
2023/02/16 06:47:47;;;;;;;90.22;36.10;;;;;;;0.84;100.00;101410.22;5077930;28;20047;-79
2023/02/16 06:50:14;;;;;;;80.22;34.83;;;;;;;1.48;100.00;101512.50;5082478;28;20044;-79
2023/02/16 06:52:40;;;;;;;84.30;35.35;;;;;;;1.21;100.00;101454.03;5074214;28;20040;-80
2023/02/16 06:55:08;;;;;;;88.05;37.53;;;;;;;1.35;100.00;101491.53;5086988;28;20084;-80
2023/02/16 06:57:34;;;;;;;84.07;36.28;;;;;;;1.35;100.00;101482.84;5072667;28;20080;-81
2023/02/16 07:00:03;;;;;;;88.75;37.75;;;;;;;1.63;100.00;101539.59;5088420;28;20032;-79
2023/02/16 07:02:30;;;;;;;79.75;34.35;;;;;;;1.26;100.00;101493.22;5089962;28;20061;-81
2023/02/16 07:04:56;;;;;;;84.05;37.00;;;;;;;0.99;100.00;101478.16;5090593;28;20073;-80
2023/02/16 07:07:23;;;;;;;80.60;35.85;;;;;;;1.10;100.00;101493.94;5072017;28;20116;-80
2023/02/16 07:09:49;;;;;;;79.22;35.53;;;;;;;1.17;100.00;101503.56;5086432;28;20099;-81
2023/02/16 07:12:16;;;;;;;74.28;33.42;;;;;;;0.95;100.00;101442.47;5085282;28;20020;-79
2023/02/16 07:14:43;;;;;;;77.63;35.25;;;;;;;0.76;100.00;101458.84;5081414;28;20098;-77
2023/02/16 07:17:09;;;;;;;76.93;34.38;;;;;;;0.43;100.00;101412.44;5080181;28;20552;-81
2023/02/16 07:19:36;;;;;;;80.63;34.80;;;;;;;0.58;100.00;101443.88;5078353;28;20122;-81
2023/02/16 07:22:04;;;;;;;82.18;35.95;;;;;;;1.34;100.00;101552.41;5080663;28;20057;-79
2023/02/16 07:24:30;;;;;;;84.85;37.78;;;;;;;0.91;100.00;101498.97;5083706;28;20053;-80
2023/02/16 07:26:57;;;;;;;95.25;41.30;;;;;;;0.48;100.00;101389.91;5078378;28;20568;-79
2023/02/16 07:29:24;;;;;;;86.82;36.95;;;;;;;1.05;100.00;101486.94;5073717;28;20095;-81
2023/02/16 07:31:50;;;;;;;80.75;35.83;;;;;;;0.92;100.00;101500.72;5061507;28;20136;-81
2023/02/16 07:34:18;;;;;;;86.10;36.47;;;;;;;0.76;100.00;101488.38;5079790;28;20052;-81
2023/02/16 07:36:47;;;;;;;84.67;35.30;;;;;;;0.67;100.00;101516.94;5072089;28;20067;-79
2023/02/16 07:39:13;;;;;;;86.68;35.13;;;;;;;0.56;100.00;101503.81;5078053;28;20048;-79
2023/02/16 07:41:40;;;;;;;76.18;33.38;;;;;;;0.40;100.00;101451.50;5074697;28;20097;-78
2023/02/16 07:44:07;;;;;;;75.88;34.88;;;;;;;0.73;100.00;101488.34;5068429;28;20056;-78
2023/02/16 07:46:34;;;;;;;69.30;33.13;;;;;;;-0.58;100.00;101273.31;5071573;28;20052;-78
2023/02/16 07:49:01;;;;;;;69.45;33.20;;;;;;;0.12;100.00;101374.78;5073971;28;20049;-80
2023/02/16 07:51:29;;;;;;;74.07;33.58;;;;;;;1.29;100.00;101567.16;5059661;28;20124;-78
2023/02/16 07:53:57;;;;;;;68.72;32.63;;;;;;;0.99;100.00;101505.13;5075026;28;20116;-78
2023/02/16 07:56:27;;;;;;;72.97;33.67;;;;;;;1.39;100.00;101571.63;5079462;28;20091;-78
2023/02/16 07:58:55;;;;;;;69.82;32.78;;;;;;;1.26;100.00;101540.19;5080799;28;20056;-80
2023/02/16 08:01:22;;;;;;;72.68;32.72;;;;;;;1.15;100.00;101526.13;5068922;28;20077;-78
2023/02/16 08:03:49;;;;;;;65.32;31.38;;;;;;;1.45;100.00;101578.59;5076079;28;20068;-80
2023/02/16 08:06:16;;;;;;;64.75;30.65;;;;;;;1.38;100.00;101582.03;5073771;28;20060;-79
2023/02/16 08:08:44;;;;;;;66.38;30.85;;;;;;;1.41;100.00;101582.06;5073382;28;20048;-79
2023/02/16 08:11:22;;;;;;;62.40;29.90;;;;;;;1.44;100.00;101578.59;5067276;28;20053;-77
2023/02/16 08:13:49;;;;;;;65.93;31.25;;;;;;;1.49;100.00;101579.50;5063106;28;20135;-78
2023/02/16 08:16:23;;;;;;;63.95;29.80;;;;;;;1.13;100.00;101535.69;5071952;28;20139;-80
2023/02/16 08:18:51;;;;;;;61.25;31.15;;;;;;;-0.15;100.00;101328.44;5062719;28;20120;-79
2023/02/16 08:21:20;;;;;;;57.78;29.17;;;;;;;1.01;100.00;101521.66;5067480;28;20037;-79
2023/02/16 08:24:01;;;;;;;65.00;31.42;;;;;;;1.30;100.00;101578.47;5065223;28;20074;-79
2023/02/16 08:26:30;;;;;;;;;;;;;;;1.32;100.00;101569.78;5074497;28;20044;-79
2023/02/16 08:28:57;;;;;;;53.08;25.90;;;;;;;0.90;100.00;101499.84;5075382;28;20069;-79
2023/02/16 08:31:28;;;;;;;60.83;28.35;;;;;;;1.04;100.00;101566.03;5075715;28;20079;-81
2023/02/16 08:33:58;;;;;;;66.30;29.80;;;;;;;0.04;100.00;101449.31;5079789;28;20045;-80
2023/02/16 08:36:31;;;;;;;64.10;29.60;;;;;;;0.00;100.00;101511.75;5073197;28;20497;-79
2023/02/16 08:38:59;;;;;;;69.47;31.13;;;;;;;0.22;100.00;101546.81;5076304;28;20086;-79
2023/02/16 08:41:35;;;;;;;60.17;29.35;;;;;;;-0.30;100.00;101435.84;5056222;28;20062;-79
2023/02/16 08:44:03;;;;;;;64.82;31.58;;;;;;;0.61;100.00;101579.47;5056516;28;20139;-78
2023/02/16 08:46:32;;;;;;;61.78;31.98;;;;;;;-0.47;100.00;101380.09;5073493;28;20052;-81
2023/02/16 08:48:59;;;;;;;58.22;29.02;;;;;;;0.93;100.00;101593.75;5076112;28;20048;-80
2023/02/16 08:51:29;;;;;;;57.40;29.10;;;;;;;-0.42;100.00;101318.59;5076516;28;20060;-81
2023/02/16 08:53:58;;;;;;;58.40;29.77;;;;;;;1.17;100.00;101572.25;5076758;28;20536;-82
2023/02/16 08:56:28;;;;;;;53.65;27.15;;;;;;;0.53;100.00;101462.06;5070881;28;20144;-80
2023/02/16 08:58:55;;;;;;;59.30;28.95;;;;;;;0.26;100.00;101441.78;5074897;28;20114;-79
2023/02/16 09:01:22;;;;;;;61.00;29.30;;;;;;;0.59;100.00;101502.97;5073594;28;20044;-79
2023/02/16 09:03:50;;;;;;;54.63;29.33;;;;;;;1.23;100.00;101589.72;5058823;28;20601;-79
2023/02/16 09:06:21;;;;;;;56.47;29.50;;;;;;;1.37;100.00;101582.91;5082616;28;20056;-80
2023/02/16 09:08:55;;;;;;;62.17;29.83;;;;;;;0.71;100.00;101471.81;5089009;28;20068;-80
2023/02/16 09:11:23;;;;;;;62.88;29.48;;;;;;;-0.43;100.00;101332.47;5086530;28;20111;-78
2023/02/16 09:13:50;;;;;;;56.67;26.83;;;;;;;0.75;100.00;101597.88;5082182;28;20071;-80
2023/02/16 09:16:19;;;;;;;58.83;28.70;;;;;;;0.70;100.00;101588.25;5078785;28;20075;-80
2023/02/16 09:18:47;;;;;;;64.45;29.75;;;;;;;-0.22;100.00;101441.19;5082608;28;20508;-80
2023/02/16 09:21:16;;;;;;;68.00;30.63;;;;;;;0.30;100.00;101557.34;5076055;28;20040;-79
2023/02/16 09:23:47;;;;;;;62.20;29.40;;;;;;;0.29;100.00;101556.47;5076483;28;20083;-80
2023/02/16 09:26:18;;;;;;;69.95;30.02;;;;;;;0.54;100.00;101611.50;5076654;28;20135;-79
2023/02/16 09:28:46;;;;;;;63.72;31.10;;;;;;;0.46;100.00;101579.25;5083487;28;20052;-79
2023/02/16 09:31:18;;;;;;;63.67;30.52;;;;;;;0.63;100.00;101603.81;5084893;28;20124;-79
2023/02/16 09:33:45;;;;;;;63.15;31.10;;;;;;;0.21;100.00;101498.16;5083575;28;20098;-79
2023/02/16 09:36:12;;;;;;;61.20;29.50;;;;;;;0.63;100.00;101536.88;5087173;28;20078;-80
2023/02/16 09:38:39;;;;;;;54.63;28.60;;;;;;;1.03;100.00;101574.72;5083316;28;20075;-80
2023/02/16 09:41:18;;;;;;;54.53;28.40;;;;;;;0.89;100.00;101507.63;5089689;28;20044;-79
2023/02/16 09:43:55;;;;;;;51.83;26.65;;;;;;;1.12;100.00;101558.28;5080713;28;20724;-79
2023/02/16 09:46:24;;;;;;;55.30;28.42;;;;;;;0.39;100.00;101497.53;5079681;28;20059;-79
2023/02/16 09:48:51;;;;;;;51.85;27.38;;;;;;;0.92;100.00;101617.19;5090292;28;20078;-82
2023/02/16 09:51:27;;;;;;;54.38;29.00;;;;;;;0.74;100.00;101601.34;5088880;28;20052;-79
2023/02/16 09:54:15;;;;;;;56.60;29.25;;;;;;;0.61;100.00;101615.94;5082687;28;20126;-78
2023/02/16 09:57:07;;;;;;;60.70;29.10;;;;;;;0.52;100.00;101595.84;5074854;28;20063;-78
2023/02/16 09:59:48;;;;;;;60.58;28.80;;;;;;;0.51;100.00;101561.94;5075210;28;20076;-80
2023/02/16 10:02:44;;;;;;;64.35;30.98;;;;;;;0.44;100.00;101534.06;5069987;28;20106;-79
2023/02/16 10:05:29;;;;;;;62.78;31.45;;;;;;;0.44;100.00;101515.81;5028800;28;20116;-79
2023/02/16 10:08:02;;;;;;;61.92;29.45;;;;;;;0.28;100.00;101489.59;5075791;28;20044;-79
2023/02/16 10:10:52;;;;;;;72.18;32.05;;;;;;;0.50;100.00;101534.13;5072045;28;20052;-79
2023/02/16 10:13:45;;;;;;;71.05;33.55;;;;;;;0.66;100.00;101562.13;5070434;28;20143;-79
2023/02/16 10:16:21;;;;;;;71.38;34.08;;;;;;;0.40;100.00;101522.72;5069091;28;20056;-79
2023/02/16 10:18:52;;;;;;;76.32;36.03;;;;;;;0.38;100.00;101492.28;5071000;28;20056;-79
2023/02/16 10:21:24;;;;;;;66.78;31.55;;;;;;;0.72;100.00;101537.88;5068500;28;20107;-79
2023/02/16 10:24:00;;;;;;;63.53;31.92;;;;;;;1.09;100.00;101594.78;5073714;28;20048;-78
2023/02/16 10:26:35;;;;;;;68.55;32.50;;;;;;;1.04;100.00;101597.34;5056816;28;20064;-79
2023/02/16 10:29:14;;;;;;;71.47;33.05;;;;;;;1.12;100.00;101602.63;5067393;28;20083;-80
2023/02/16 10:32:10;;;;;;;73.20;34.17;;;;;;;1.22;100.00;101599.28;5073685;28;20056;-79
2023/02/16 10:34:46;;;;;;;73.78;35.17;;;;;;;1.26;100.00;101585.38;5068304;28;20053;-77
2023/02/16 10:37:37;;;;;;;80.75;37.80;;;;;;;1.39;100.00;101594.22;5073039;28;20106;-78
2023/02/16 10:40:35;;;;;;;76.28;35.85;;;;;;;1.47;100.00;101599.50;5067552;28;20135;-79
2023/02/16 10:43:17;;;;;;;77.82;38.97;;;;;;;1.66;100.00;101581.41;5065417;28;20056;-79
2023/02/16 10:45:57;;;;;;;83.15;37.55;;;;;;;1.70;100.00;101525.75;5072240;28;20052;-78
2023/02/16 10:48:25;;;;;;;79.47;37.63;;;;;;;2.26;100.00;101564.41;5072893;28;20052;-79
2023/02/16 10:50:57;;;;;;;77.47;37.67;;;;;;;2.56;100.00;101579.38;5072412;28;20131;-79
2023/02/16 10:53:30;;;;;;;70.10;35.00;;;;;;;2.79;100.00;101572.50;5072377;28;20489;-79
2023/02/16 10:55:57;;;;;;;66.85;35.10;;;;;;;2.32;100.00;101479.94;5072611;28;20155;-78
2023/02/16 10:58:38;;;;;;;64.15;33.22;;;;;;;3.03;100.00;101562.97;5072577;28;20052;-79
2023/02/16 11:01:19;;;;;;;65.70;34.20;;;;;;;3.21;100.00;101567.38;5065256;28;20513;-79
2023/02/16 11:03:52;;;;;;;68.78;35.25;;;;;;;2.31;100.00;101433.75;5055747;28;20055;-79
2023/02/16 11:06:22;;;;;;;68.65;35.55;;;;;;;2.91;100.00;101531.53;5072122;28;20102;-78
2023/02/16 11:09:00;;;;;;;69.57;34.65;;;;;;;2.65;100.00;101487.03;5065333;28;20710;-79
2023/02/16 11:11:37;;;;;;;67.32;33.47;;;;;;;2.69;100.00;101488.75;5071876;28;20045;-78
2023/02/16 11:14:20;;;;;;;74.05;38.03;;;;;;;2.54;100.00;101505.28;5071417;28;20420;-81
2023/02/16 11:16:47;;;;;;;86.00;41.10;;;;;;;2.42;100.00;101482.56;5071566;28;20066;-80
2023/02/16 11:19:23;;;;;;;81.35;40.63;;;;;;;2.61;100.00;101540.16;5069370;28;20087;-78
2023/02/16 11:21:57;;;;;;;86.82;41.45;;;;;;;1.89;100.00;101417.03;5070473;28;20076;-79
2023/02/16 11:24:26;;;;;;;86.13;40.22;;;;;;;2.52;100.00;101524.47;5069681;28;20052;-78
2023/02/16 11:27:11;;;;;;;79.80;39.75;;;;;;;2.83;100.00;101522.81;5056511;28;20131;-78
2023/02/16 11:29:39;;;;;;;80.00;40.10;;;;;;;2.78;100.00;101521.06;5074937;28;20151;-79
2023/02/16 11:32:08;;;;;;;85.05;41.35;;;;;;;2.83;100.00;101512.34;5073953;28;20055;-79
2023/02/16 11:34:40;;;;;;;83.80;41.70;;;;;;;2.88;100.00;101510.59;5073515;28;20486;-78
2023/02/16 11:37:27;;;;;;;83.68;41.33;;;;;;;2.88;100.00;101521.94;5068113;28;20062;-80
2023/02/16 11:40:03;;;;;;;88.55;41.80;;;;;;;2.62;100.00;101468.69;5073598;28;20056;-79
2023/02/16 11:42:39;;;;;;;95.03;44.13;;;;;;;2.86;100.00;101499.25;5075738;28;20052;-80
2023/02/16 11:45:08;;;;;;;94.45;47.03;;;;;;;2.71;100.00;101521.03;5067712;28;20066;-79
2023/02/16 11:47:38;;;;;;;94.20;45.35;;;;;;;2.77;100.00;101514.06;5081498;28;20048;-80
2023/02/16 11:50:30;;;;;;;90.55;44.47;;;;;;;2.78;100.00;101507.97;5085326;28;20151;-81
2023/02/16 11:53:09;;;;;;;100.70;45.58;;;;;;;2.87;100.00;101501.88;5085470;28;20112;-79
2023/02/16 11:55:45;;;;;;;99.78;46.67;;;;;;;2.61;100.00;101457.38;5057826;28;20460;-79
2023/02/16 11:58:14;;;;;;;95.30;46.80;;;;;;;3.20;100.00;101508.91;5074463;28;20049;-79
2023/02/16 12:00:50;;;;;;;90.78;45.75;;;;;;;2.15;100.00;101312.63;5073171;28;20094;-78
2023/02/16 12:03:49;;;;;;;92.60;44.88;;;;;;;3.21;100.00;101475.75;5077132;28;20045;-80
2023/02/16 12:06:34;;;;;;;91.20;43.92;;;;;;;3.71;100.00;101501.91;5069413;28;20105;-79
2023/02/16 12:09:20;;;;;;;88.90;44.10;;;;;;;3.95;100.00;101491.38;5073491;28;20044;-78
2023/02/16 12:11:47;;;;;;;88.78;43.38;;;;;;;4.16;100.00;101496.56;5071091;28;20116;-79